UAL1789 KRDU-KIAD
Flight info
| Callsign | UAL1789 |
|---|---|
| Flight time | 0h 40m |
| Altitude | 29000 |
| Route | OXFRD5 CARML DORRN CAVLR6 |
| Aircraft | B738/M-SDE2E3FGHIRWXY/LB1 |
Departure
| Time | 2026-05-07 00:05 |
|---|---|
| Airport | Raleigh-Durham International Airport (KRDU) |
Arrival
| Time | 2026-05-07 00:45 |
|---|---|
| Airport | Washington Dulles International Airport (KIAD) |
| Time | Latitude | Longitude | Altitude | Speed | Heading |
|---|---|---|---|---|---|
| 2026-05-06 23:27 | 35.87582 | -78.79629 | 391 ft | 0 kts | 135° |
| 2026-05-06 23:28 | 35.87612 | -78.79594 | 391 ft | 0 kts | 135° |
| 2026-05-06 23:48 | 35.87623 | -78.79608 | 391 ft | 4 kts | 126° |
| 2026-05-06 23:49 | 35.87634 | -78.79637 | 390 ft | 4 kts | 98° |
| 2026-05-06 23:49 | 35.87633 | -78.79668 | 390 ft | 4 kts | 61° |
| 2026-05-06 23:49 | 35.87626 | -78.79680 | 390 ft | 0 kts | 45° |
| 2026-05-06 23:52 | 35.87633 | -78.79671 | 390 ft | 3 kts | 45° |
| 2026-05-06 23:52 | 35.87663 | -78.79634 | 390 ft | 9 kts | 45° |
| 2026-05-06 23:52 | 35.87719 | -78.79566 | 391 ft | 14 kts | 45° |
| 2026-05-06 23:53 | 35.87792 | -78.79476 | 391 ft | 16 kts | 45° |
| 2026-05-06 23:53 | 35.87871 | -78.79378 | 391 ft | 16 kts | 45° |
| 2026-05-06 23:53 | 35.87948 | -78.79284 | 391 ft | 15 kts | 45° |
| 2026-05-06 23:53 | 35.88021 | -78.79193 | 391 ft | 15 kts | 45° |
| 2026-05-06 23:54 | 35.88091 | -78.79107 | 391 ft | 14 kts | 45° |
| 2026-05-06 23:54 | 35.88158 | -78.79021 | 390 ft | 14 kts | 47° |
| 2026-05-06 23:54 | 35.88229 | -78.78931 | 390 ft | 15 kts | 45° |
| 2026-05-06 23:54 | 35.88304 | -78.78838 | 390 ft | 16 kts | 45° |
| 2026-05-06 23:55 | 35.88384 | -78.78741 | 390 ft | 17 kts | 44° |
| 2026-05-06 23:55 | 35.88465 | -78.78640 | 391 ft | 16 kts | 45° |
| 2026-05-06 23:55 | 35.88542 | -78.78544 | 391 ft | 16 kts | 45° |
| 2026-05-06 23:55 | 35.88617 | -78.78451 | 391 ft | 15 kts | 45° |
| 2026-05-06 23:56 | 35.88689 | -78.78363 | 391 ft | 14 kts | 45° |
| 2026-05-06 23:56 | 35.88758 | -78.78278 | 391 ft | 14 kts | 44° |
| 2026-05-06 23:56 | 35.88829 | -78.78190 | 391 ft | 15 kts | 46° |
| 2026-05-06 23:56 | 35.88903 | -78.78098 | 391 ft | 16 kts | 45° |
| 2026-05-06 23:57 | 35.88974 | -78.77995 | 390 ft | 16 kts | 65° |
| 2026-05-06 23:57 | 35.89021 | -78.77875 | 391 ft | 16 kts | 49° |
| 2026-05-06 23:57 | 35.89088 | -78.77792 | 391 ft | 12 kts | 44° |
| 2026-05-06 23:57 | 35.89143 | -78.77723 | 391 ft | 10 kts | 46° |
| 2026-05-06 23:58 | 35.89174 | -78.77683 | 391 ft | 2 kts | 46° |
| 2026-05-06 23:58 | 35.89184 | -78.77671 | 391 ft | 2 kts | 46° |
| 2026-05-06 23:58 | 35.89193 | -78.77660 | 391 ft | 2 kts | 46° |
| 2026-05-06 23:58 | 35.89202 | -78.77650 | 391 ft | 2 kts | 39° |
| 2026-05-06 23:59 | 35.89219 | -78.77642 | 391 ft | 4 kts | 8° |
| 2026-05-06 23:59 | 35.89240 | -78.77654 | 391 ft | 0 kts | 317° |
| 2026-05-07 00:01 | 35.89241 | -78.77655 | 391 ft | 1 kts | 317° |
| 2026-05-07 00:02 | 35.89265 | -78.77683 | 391 ft | 6 kts | 314° |
| 2026-05-07 00:02 | 35.89296 | -78.77722 | 391 ft | 5 kts | 315° |
| 2026-05-07 00:02 | 35.89308 | -78.77736 | 391 ft | 0 kts | 315° |
| 2026-05-07 00:03 | 35.89313 | -78.77743 | 391 ft | 3 kts | 315° |
| 2026-05-07 00:03 | 35.89341 | -78.77777 | 392 ft | 6 kts | 315° |
| 2026-05-07 00:04 | 35.89367 | -78.77814 | 392 ft | 5 kts | 290° |
| 2026-05-07 00:04 | 35.89358 | -78.77837 | 392 ft | 0 kts | 224° |
| 2026-05-07 00:04 | 35.89357 | -78.77838 | 392 ft | 1 kts | 224° |
| 2026-05-07 00:04 | 35.89302 | -78.77903 | 391 ft | 37 kts | 225° |
| 2026-05-07 00:05 | 35.88950 | -78.78340 | 391 ft | 104 kts | 225° |
| 2026-05-07 00:05 | 35.88301 | -78.79137 | 393 ft | 156 kts | 224° |
| 2026-05-07 00:05 | 35.87507 | -78.80096 | 924 ft | 163 kts | 224° |
| 2026-05-07 00:05 | 35.86697 | -78.81049 | 1692 ft | 157 kts | 225° |
| 2026-05-07 00:06 | 35.85899 | -78.81970 | 2349 ft | 160 kts | 225° |
| 2026-05-07 00:06 | 35.85051 | -78.82951 | 2843 ft | 173 kts | 225° |
| 2026-05-07 00:06 | 35.84158 | -78.84042 | 3218 ft | 191 kts | 235° |
| 2026-05-07 00:06 | 35.83703 | -78.85610 | 3431 ft | 210 kts | 265° |
| 2026-05-07 00:07 | 35.84014 | -78.87436 | 3735 ft | 228 kts | 293° |
| 2026-05-07 00:07 | 35.85032 | -78.89058 | 4004 ft | 254 kts | 310° |
| 2026-05-07 00:07 | 35.86472 | -78.90484 | 4438 ft | 276 kts | 329° |
| 2026-05-07 00:07 | 35.88339 | -78.91046 | 5387 ft | 278 kts | 349° |
| 2026-05-07 00:08 | 35.90268 | -78.91161 | 6252 ft | 279 kts | 353° |
| 2026-05-07 00:08 | 35.92219 | -78.90785 | 6960 ft | 293 kts | 15° |
| 2026-05-07 00:08 | 35.94058 | -78.89636 | 7695 ft | 300 kts | 25° |
| 2026-05-07 00:08 | 35.95845 | -78.88306 | 8513 ft | 300 kts | 25° |
| 2026-05-07 00:09 | 35.97669 | -78.86953 | 9079 ft | 312 kts | 25° |
| 2026-05-07 00:09 | 35.99528 | -78.85594 | 10024 ft | 307 kts | 25° |
| 2026-05-07 00:09 | 36.01391 | -78.84251 | 10643 ft | 317 kts | 24° |
| 2026-05-07 00:09 | 36.03372 | -78.82855 | 10942 ft | 337 kts | 24° |
| 2026-05-07 00:10 | 36.05478 | -78.81418 | 11255 ft | 355 kts | 23° |
| 2026-05-07 00:10 | 36.07682 | -78.79941 | 11797 ft | 364 kts | 23° |
| 2026-05-07 00:10 | 36.09920 | -78.78445 | 12548 ft | 366 kts | 23° |
| 2026-05-07 00:10 | 36.12168 | -78.76942 | 13376 ft | 368 kts | 23° |
| 2026-05-07 00:11 | 36.14431 | -78.75429 | 14141 ft | 371 kts | 23° |
| 2026-05-07 00:11 | 36.16689 | -78.73919 | 14808 ft | 375 kts | 22° |
| 2026-05-07 00:11 | 36.18998 | -78.72374 | 15509 ft | 378 kts | 22° |
| 2026-05-07 00:11 | 36.21332 | -78.70811 | 16260 ft | 382 kts | 22° |
| 2026-05-07 00:12 | 36.23698 | -78.69226 | 16910 ft | 388 kts | 21° |
| 2026-05-07 00:12 | 36.26068 | -78.67637 | 17558 ft | 393 kts | 21° |
| 2026-05-07 00:12 | 36.28476 | -78.66018 | 18309 ft | 394 kts | 21° |
| 2026-05-07 00:12 | 36.30898 | -78.64389 | 18915 ft | 398 kts | 21° |
| 2026-05-07 00:13 | 36.33346 | -78.62744 | 19483 ft | 403 kts | 21° |
| 2026-05-07 00:13 | 36.35832 | -78.61106 | 20036 ft | 405 kts | 18° |
| 2026-05-07 00:13 | 36.38459 | -78.59937 | 20608 ft | 400 kts | 8° |
| 2026-05-07 00:13 | 36.41157 | -78.59056 | 21200 ft | 402 kts | 7° |
| 2026-05-07 00:14 | 36.43882 | -78.58180 | 21736 ft | 407 kts | 7° |
| 2026-05-07 00:14 | 36.46631 | -78.57248 | 22275 ft | 412 kts | 8° |
| 2026-05-07 00:14 | 36.49413 | -78.56273 | 22773 ft | 417 kts | 9° |
| 2026-05-07 00:14 | 36.52216 | -78.55271 | 23279 ft | 422 kts | 9° |
| 2026-05-07 00:15 | 36.55066 | -78.54246 | 23661 ft | 429 kts | 9° |
| 2026-05-07 00:15 | 36.57945 | -78.53209 | 24038 ft | 433 kts | 9° |
| 2026-05-07 00:15 | 36.60847 | -78.52161 | 24491 ft | 435 kts | 9° |
| 2026-05-07 00:15 | 36.63761 | -78.51109 | 24967 ft | 437 kts | 9° |
| 2026-05-07 00:16 | 36.66682 | -78.50055 | 25542 ft | 436 kts | 9° |
| 2026-05-07 00:16 | 36.69559 | -78.49017 | 26151 ft | 435 kts | 9° |
| 2026-05-07 00:16 | 36.72468 | -78.47969 | 26668 ft | 436 kts | 9° |
| 2026-05-07 00:16 | 36.75373 | -78.46739 | 26919 ft | 450 kts | 20° |
| 2026-05-07 00:17 | 36.78123 | -78.44688 | 26979 ft | 466 kts | 27° |
| 2026-05-07 00:17 | 36.80836 | -78.42447 | 26951 ft | 477 kts | 28° |
| 2026-05-07 00:17 | 36.83638 | -78.40080 | 26959 ft | 486 kts | 28° |
| 2026-05-07 00:17 | 36.86424 | -78.37732 | 26954 ft | 494 kts | 28° |
| 2026-05-07 00:18 | 36.89306 | -78.35330 | 26948 ft | 500 kts | 28° |
| 2026-05-07 00:18 | 36.92215 | -78.32930 | 26947 ft | 503 kts | 27° |
| 2026-05-07 00:18 | 36.95143 | -78.30533 | 26935 ft | 504 kts | 27° |
| 2026-05-07 00:18 | 36.98086 | -78.28134 | 26933 ft | 505 kts | 27° |
| 2026-05-07 00:19 | 37.01034 | -78.25732 | 26919 ft | 506 kts | 27° |
| 2026-05-07 00:19 | 37.03976 | -78.23335 | 26913 ft | 506 kts | 27° |
| 2026-05-07 00:19 | 37.06931 | -78.20923 | 26920 ft | 505 kts | 27° |
| 2026-05-07 00:19 | 37.09872 | -78.18519 | 26917 ft | 504 kts | 27° |
| 2026-05-07 00:20 | 37.12805 | -78.16118 | 26955 ft | 503 kts | 26° |
| 2026-05-07 00:20 | 37.15741 | -78.13712 | 26924 ft | 504 kts | 26° |
| 2026-05-07 00:20 | 37.18678 | -78.11304 | 26928 ft | 504 kts | 26° |
| 2026-05-07 00:20 | 37.21612 | -78.08897 | 26925 ft | 505 kts | 26° |
| 2026-05-07 00:21 | 37.24555 | -78.06478 | 26921 ft | 505 kts | 26° |
| 2026-05-07 00:21 | 37.27497 | -78.04059 | 26906 ft | 506 kts | 26° |
| 2026-05-07 00:21 | 37.30405 | -78.01665 | 26903 ft | 506 kts | 26° |
| 2026-05-07 00:21 | 37.33325 | -77.99255 | 26884 ft | 494 kts | 26° |
| 2026-05-07 00:22 | 37.36168 | -77.96945 | 26839 ft | 478 kts | 22° |
| 2026-05-07 00:22 | 37.39133 | -77.95256 | 26311 ft | 460 kts | 9° |
| 2026-05-07 00:22 | 37.42148 | -77.94027 | 25871 ft | 452 kts | 7° |
| 2026-05-07 00:22 | 37.45137 | -77.92854 | 25392 ft | 448 kts | 8° |
| 2026-05-07 00:23 | 37.48091 | -77.91631 | 24916 ft | 446 kts | 9° |
| 2026-05-07 00:23 | 37.51005 | -77.90357 | 24452 ft | 442 kts | 9° |
| 2026-05-07 00:23 | 37.53897 | -77.89052 | 23955 ft | 442 kts | 11° |
| 2026-05-07 00:23 | 37.56731 | -77.87524 | 23490 ft | 444 kts | 15° |
| 2026-05-07 00:24 | 37.59519 | -77.85856 | 22901 ft | 443 kts | 16° |
| 2026-05-07 00:24 | 37.62292 | -77.84207 | 22384 ft | 438 kts | 15° |
| 2026-05-07 00:24 | 37.65039 | -77.82617 | 21976 ft | 431 kts | 15° |
| 2026-05-07 00:24 | 37.67763 | -77.81082 | 21300 ft | 431 kts | 14° |
| 2026-05-07 00:25 | 37.70514 | -77.79566 | 20718 ft | 429 kts | 14° |
| 2026-05-07 00:25 | 37.73251 | -77.78063 | 20122 ft | 429 kts | 14° |
| 2026-05-07 00:25 | 37.75959 | -77.76573 | 19533 ft | 431 kts | 15° |
| 2026-05-07 00:25 | 37.78719 | -77.75047 | 18918 ft | 433 kts | 15° |
| 2026-05-07 00:26 | 37.81487 | -77.73509 | 18296 ft | 433 kts | 15° |
| 2026-05-07 00:26 | 37.84244 | -77.71973 | 17611 ft | 432 kts | 16° |
| 2026-05-07 00:26 | 37.86995 | -77.70440 | 17019 ft | 429 kts | 16° |
| 2026-05-07 00:26 | 37.89711 | -77.68923 | 16472 ft | 423 kts | 17° |
| 2026-05-07 00:27 | 37.92399 | -77.67421 | 15883 ft | 420 kts | 17° |
| 2026-05-07 00:27 | 37.95064 | -77.65934 | 15315 ft | 416 kts | 17° |
| 2026-05-07 00:27 | 37.97648 | -77.64490 | 14744 ft | 413 kts | 17° |
| 2026-05-07 00:27 | 38.00294 | -77.63012 | 14191 ft | 410 kts | 18° |
| 2026-05-07 00:28 | 38.02903 | -77.61552 | 13574 ft | 409 kts | 18° |
| 2026-05-07 00:28 | 38.05488 | -77.60103 | 13188 ft | 403 kts | 19° |
| 2026-05-07 00:28 | 38.08028 | -77.58577 | 13056 ft | 401 kts | 22° |
| 2026-05-07 00:28 | 38.10456 | -77.56996 | 13000 ft | 384 kts | 22° |
| 2026-05-07 00:29 | 38.12782 | -77.55477 | 12976 ft | 364 kts | 21° |
| 2026-05-07 00:29 | 38.14975 | -77.54063 | 12984 ft | 343 kts | 21° |
| 2026-05-07 00:30 | 38.21328 | -77.50018 | 11782 ft | 345 kts | 21° |
| 2026-05-07 00:30 | 38.23423 | -77.48677 | 11664 ft | 329 kts | 20° |
| 2026-05-07 00:30 | 38.25498 | -77.47605 | 11275 ft | 316 kts | 11° |
| 2026-05-07 00:30 | 38.27597 | -77.46854 | 10810 ft | 311 kts | 8° |
| 2026-05-07 00:31 | 38.29692 | -77.46177 | 10296 ft | 311 kts | 7° |
| 2026-05-07 00:31 | 38.31790 | -77.45498 | 9799 ft | 310 kts | 8° |
| 2026-05-07 00:31 | 38.33840 | -77.44814 | 9342 ft | 307 kts | 9° |
| 2026-05-07 00:31 | 38.35890 | -77.44112 | 8884 ft | 304 kts | 9° |
| 2026-05-07 00:32 | 38.37919 | -77.43406 | 8433 ft | 300 kts | 9° |
| 2026-05-07 00:32 | 38.39909 | -77.42707 | 8174 ft | 294 kts | 9° |
| 2026-05-07 00:32 | 38.41872 | -77.42016 | 7935 ft | 291 kts | 9° |
| 2026-05-07 00:32 | 38.43836 | -77.41324 | 7715 ft | 295 kts | 9° |
| 2026-05-07 00:33 | 38.45824 | -77.40624 | 7496 ft | 299 kts | 9° |
| 2026-05-07 00:33 | 38.47844 | -77.39908 | 7239 ft | 300 kts | 9° |
| 2026-05-07 00:33 | 38.49834 | -77.39200 | 7061 ft | 293 kts | 9° |
| 2026-05-07 00:33 | 38.51803 | -77.38545 | 6781 ft | 292 kts | 8° |
| 2026-05-07 00:34 | 38.53761 | -77.37929 | 6557 ft | 287 kts | 7° |
| 2026-05-07 00:34 | 38.55691 | -77.37321 | 6339 ft | 283 kts | 7° |
| 2026-05-07 00:34 | 38.57572 | -77.36726 | 6117 ft | 281 kts | 8° |
| 2026-05-07 00:34 | 38.59501 | -77.36233 | 6017 ft | 280 kts | 359° |
| 2026-05-07 00:35 | 38.61424 | -77.36121 | 5961 ft | 273 kts | 354° |
| 2026-05-07 00:35 | 38.63347 | -77.36101 | 5558 ft | 276 kts | 354° |
| 2026-05-07 00:35 | 38.65263 | -77.36080 | 5289 ft | 274 kts | 354° |
| 2026-05-07 00:35 | 38.67150 | -77.36044 | 5092 ft | 270 kts | 356° |
| 2026-05-07 00:36 | 38.69043 | -77.35997 | 4915 ft | 274 kts | 356° |
| 2026-05-07 00:36 | 38.70958 | -77.35939 | 4725 ft | 277 kts | 357° |
| 2026-05-07 00:36 | 38.72886 | -77.35872 | 4517 ft | 277 kts | 357° |
| 2026-05-07 00:36 | 38.74780 | -77.35804 | 4298 ft | 275 kts | 358° |
| 2026-05-07 00:37 | 38.76692 | -77.35733 | 4106 ft | 274 kts | 358° |
| 2026-05-07 00:37 | 38.78596 | -77.35664 | 4035 ft | 273 kts | 358° |
| 2026-05-07 00:37 | 38.80490 | -77.35595 | 4012 ft | 271 kts | 358° |
| 2026-05-07 00:37 | 38.82368 | -77.35527 | 4007 ft | 268 kts | 358° |
| 2026-05-07 00:38 | 38.84195 | -77.35459 | 3988 ft | 256 kts | 358° |
| 2026-05-07 00:38 | 38.85931 | -77.35394 | 3988 ft | 244 kts | 358° |
| 2026-05-07 00:38 | 38.87586 | -77.35332 | 3989 ft | 231 kts | 358° |
| 2026-05-07 00:38 | 38.89156 | -77.35274 | 4002 ft | 221 kts | 357° |
| 2026-05-07 00:39 | 38.90698 | -77.35221 | 4020 ft | 227 kts | 358° |
| 2026-05-07 00:39 | 38.92332 | -77.35167 | 4043 ft | 242 kts | 358° |
| 2026-05-07 00:39 | 38.94025 | -77.35107 | 4014 ft | 242 kts | 358° |
| 2026-05-07 00:39 | 38.95666 | -77.35045 | 4002 ft | 229 kts | 358° |
| 2026-05-07 00:40 | 38.97200 | -77.34987 | 4012 ft | 212 kts | 358° |
| 2026-05-07 00:40 | 38.98624 | -77.34933 | 3970 ft | 198 kts | 358° |
| 2026-05-07 00:40 | 38.99988 | -77.34883 | 3778 ft | 194 kts | 358° |
| 2026-05-07 00:40 | 39.01327 | -77.34836 | 3576 ft | 191 kts | 358° |
| 2026-05-07 00:41 | 39.02650 | -77.34789 | 3337 ft | 190 kts | 358° |
| 2026-05-07 00:41 | 39.03948 | -77.34742 | 3142 ft | 185 kts | 358° |
| 2026-05-07 00:41 | 39.05230 | -77.34702 | 3084 ft | 185 kts | 356° |
| 2026-05-07 00:41 | 39.06421 | -77.35149 | 3032 ft | 181 kts | 320° |
| 2026-05-07 00:42 | 39.07077 | -77.36464 | 3012 ft | 177 kts | 281° |
| 2026-05-07 00:42 | 39.07114 | -77.38047 | 3015 ft | 179 kts | 270° |
| 2026-05-07 00:42 | 39.07063 | -77.39665 | 3044 ft | 182 kts | 269° |
| 2026-05-07 00:42 | 39.06823 | -77.41253 | 3012 ft | 183 kts | 243° |
| 2026-05-07 00:43 | 39.05893 | -77.42348 | 3047 ft | 183 kts | 212° |
| 2026-05-07 00:43 | 39.04695 | -77.43046 | 2852 ft | 198 kts | 202° |
| 2026-05-07 00:43 | 39.03337 | -77.43465 | 2414 ft | 201 kts | 188° |
| 2026-05-07 00:43 | 39.01964 | -77.43480 | 2163 ft | 197 kts | 179° |
| 2026-05-07 00:44 | 39.00600 | -77.43460 | 1733 ft | 193 kts | 182° |
| 2026-05-07 00:44 | 38.99288 | -77.43478 | 1423 ft | 181 kts | 182° |
| 2026-05-07 00:44 | 38.98060 | -77.43507 | 1037 ft | 173 kts | 183° |
| 2026-05-07 00:44 | 38.96900 | -77.43554 | 666 ft | 166 kts | 184° |
| 2026-05-07 00:45 | 38.95796 | -77.43588 | 399 ft | 151 kts | 182° |
| 2026-05-07 00:45 | 38.94805 | -77.43609 | 301 ft | 127 kts | 181° |
| 2026-05-07 00:45 | 38.94100 | -77.43621 | 300 ft | 71 kts | 180° |
| 2026-05-07 00:45 | 38.93765 | -77.43625 | 300 ft | 40 kts | 181° |
| 2026-05-07 00:46 | 38.93535 | -77.43642 | 299 ft | 25 kts | 194° |
| 2026-05-07 00:46 | 38.93389 | -77.43741 | 300 ft | 23 kts | 212° |
| 2026-05-07 00:46 | 38.93342 | -77.43868 | 300 ft | 15 kts | 321° |
| 2026-05-07 00:46 | 38.93441 | -77.43878 | 299 ft | 14 kts | 0° |
| 2026-05-07 00:47 | 38.93537 | -77.43876 | 299 ft | 13 kts | 359° |
| 2026-05-07 00:47 | 38.93629 | -77.43877 | 299 ft | 13 kts | 0° |